sensor_id;sensor_type;location;lat;lon;timestamp;pressure;altitude;pressure_sealevel;temperature;humidity
22389;BME280;11362;48.102;11.620;2022-08-11T00:00:18;95689.50;;;25.11;33.89
22389;BME280;11362;48.102;11.620;2022-08-11T00:02:50;95691.53;;;25.11;33.86
22389;BME280;11362;48.102;11.620;2022-08-11T00:05:19;95692.28;;;25.11;34.10
22389;BME280;11362;48.102;11.620;2022-08-11T00:07:51;95686.72;;;25.11;34.11
22389;BME280;11362;48.102;11.620;2022-08-11T00:10:20;95683.94;;;25.11;34.15
22389;BME280;11362;48.102;11.620;2022-08-11T00:12:52;95681.16;;;25.11;33.79
22389;BME280;11362;48.102;11.620;2022-08-11T00:15:18;95678.81;;;25.10;33.87
22389;BME280;11362;48.102;11.620;2022-08-11T00:17:45;95692.28;;;25.11;34.07
22389;BME280;11362;48.102;11.620;2022-08-11T00:20:13;95690.31;;;25.12;34.50
22389;BME280;11362;48.102;11.620;2022-08-11T00:22:41;95685.16;;;25.10;34.21
22389;BME280;11362;48.102;11.620;2022-08-11T00:25:12;95697.09;;;25.11;34.37
22389;BME280;11362;48.102;11.620;2022-08-11T00:27:39;95694.72;;;25.09;33.98
22389;BME280;11362;48.102;11.620;2022-08-11T00:30:10;95697.09;;;25.11;34.11
22389;BME280;11362;48.102;11.620;2022-08-11T00:32:37;95694.72;;;25.09;34.23
22389;BME280;11362;48.102;11.620;2022-08-11T00:35:05;95697.50;;;25.09;33.86
22389;BME280;11362;48.102;11.620;2022-08-11T00:37:31;95701.84;;;25.10;34.05
22389;BME280;11362;48.102;11.620;2022-08-11T00:39:58;95700.28;;;25.09;34.55
22389;BME280;11362;48.102;11.620;2022-08-11T00:42:45;95701.84;;;25.10;34.45
22389;BME280;11362;48.102;11.620;2022-08-11T00:45:45;95705.81;;;25.09;34.12
22389;BME280;11362;48.102;11.620;2022-08-11T00:48:27;95703.06;;;25.09;34.47
22389;BME280;11362;48.102;11.620;2022-08-11T00:51:12;95700.28;;;25.09;34.04
22389;BME280;11362;48.102;11.620;2022-08-11T00:54:25;95697.50;;;25.09;34.29
22389;BME280;11362;48.102;11.620;2022-08-11T01:00:05;95703.06;;;25.09;34.71
22389;BME280;11362;48.102;11.620;2022-08-11T01:02:44;95695.13;;;25.08;34.40
22389;BME280;11362;48.102;11.620;2022-08-11T01:11:06;95686.41;;;25.06;34.71
22389;BME280;11362;48.102;11.620;2022-08-11T01:17:46;95680.84;;;25.06;34.28
22389;BME280;11362;48.102;11.620;2022-08-11T01:20:07;95681.25;;;25.04;34.50
22389;BME280;11362;48.102;11.620;2022-08-11T01:31:46;95678.47;;;25.04;34.64
22389;BME280;11362;48.102;11.620;2022-08-11T01:40:03;95679.69;;;25.03;34.45
22389;BME280;11362;48.102;11.620;2022-08-11T01:45:53;95676.56;;;25.01;34.53
22389;BME280;11362;48.102;11.620;2022-08-11T01:48:41;95680.91;;;25.02;34.67
22389;BME280;11362;48.102;11.620;2022-08-11T01:51:19;95675.69;;;25.04;35.58
22389;BME280;11362;48.102;11.620;2022-08-11T01:53:52;95676.88;;;25.07;35.18
22389;BME280;11362;48.102;11.620;2022-08-11T01:56:41;95676.88;;;25.07;34.97
22389;BME280;11362;48.102;11.620;2022-08-11T02:05:06;95669.69;;;25.09;34.69
22389;BME280;11362;48.102;11.620;2022-08-11T02:07:57;95663.34;;;25.09;35.01
22389;BME280;11362;48.102;11.620;2022-08-11T02:10:32;95663.78;;;25.07;34.79
22389;BME280;11362;48.102;11.620;2022-08-11T02:13:12;95664.13;;;25.09;34.76
22389;BME280;11362;48.102;11.620;2022-08-11T02:15:44;95660.56;;;25.09;34.74
22389;BME280;11362;48.102;11.620;2022-08-11T02:18:32;95665.34;;;25.08;34.80
22389;BME280;11362;48.102;11.620;2022-08-11T02:21:02;95672.47;;;25.09;35.02
22389;BME280;11362;48.102;11.620;2022-08-11T02:23:39;95670.91;;;25.08;34.70
22389;BME280;11362;48.102;11.620;2022-08-11T02:26:19;95661.00;;;25.07;34.92
22389;BME280;11362;48.102;11.620;2022-08-11T02:29:08;95664.13;;;25.09;34.93
22389;BME280;11362;48.102;11.620;2022-08-11T02:31:46;95657.00;;;25.08;35.72
22389;BME280;11362;48.102;11.620;2022-08-11T02:34:44;95669.69;;;25.09;35.09
22389;BME280;11362;48.102;11.620;2022-08-11T02:37:33;95658.56;;;25.09;35.00
22389;BME280;11362;48.102;11.620;2022-08-11T02:40:16;95657.78;;;25.09;35.55
22389;BME280;11362;48.102;11.620;2022-08-11T02:50:11;95661.75;;;25.08;35.65
22389;BME280;11362;48.102;11.620;2022-08-11T02:52:50;95665.34;;;25.08;35.86
22389;BME280;11362;48.102;11.620;2022-08-11T02:55:34;95663.78;;;25.07;35.11
22389;BME280;11362;48.102;11.620;2022-08-11T02:58:13;95662.16;;;25.06;35.24
22389;BME280;11362;48.102;11.620;2022-08-11T03:00:49;95662.16;;;25.06;35.24
22389;BME280;11362;48.102;11.620;2022-08-11T03:03:31;95665.75;;;25.07;35.41
22389;BME280;11362;48.102;11.620;2022-08-11T03:08:47;95659.38;;;25.06;35.42
22389;BME280;11362;48.102;11.620;2022-08-11T03:11:38;95661.41;;;25.06;35.48
22389;BME280;11362;48.102;11.620;2022-08-11T03:14:18;95664.19;;;25.06;35.52
22389;BME280;11362;48.102;11.620;2022-08-11T03:25:28;95661.81;;;25.04;35.35
22389;BME280;11362;48.102;11.620;2022-08-11T03:34:02;95661.81;;;25.04;35.29
22389;BME280;11362;48.102;11.620;2022-08-11T03:37:04;95660.22;;;25.03;35.38
22389;BME280;11362;48.102;11.620;2022-08-11T03:39:41;95667.78;;;25.03;36.38
22389;BME280;11362;48.102;11.620;2022-08-11T03:45:18;95661.84;;;25.01;35.34
22389;BME280;11362;48.102;11.620;2022-08-11T03:47:56;95664.22;;;25.02;35.41
22389;BME280;11362;48.102;11.620;2022-08-11T03:50:26;95666.63;;;25.00;35.17
22389;BME280;11362;48.102;11.620;2022-08-11T04:17:47;95652.34;;;24.98;35.22
22389;BME280;11362;48.102;11.620;2022-08-11T04:20:22;95652.34;;;24.98;35.99
22389;BME280;11362;48.102;11.620;2022-08-11T04:25:34;95650.78;;;24.97;35.53
22389;BME280;11362;48.102;11.620;2022-08-11T04:28:43;95656.34;;;24.97;35.52
22389;BME280;11362;48.102;11.620;2022-08-11T04:31:33;95652.78;;;24.97;35.31
22389;BME280;11362;48.102;11.620;2022-08-11T04:34:05;95661.13;;;24.97;35.48
22389;BME280;11362;48.102;11.620;2022-08-11T04:37:08;95650.78;;;24.97;35.39
22389;BME280;11362;48.102;11.620;2022-08-11T04:45:44;95657.19;;;24.94;35.81
22389;BME280;11362;48.102;11.620;2022-08-11T04:48:46;95649.25;;;24.93;36.52
22389;BME280;11362;48.102;11.620;2022-08-11T04:51:37;95656.78;;;24.92;35.63
22389;BME280;11362;48.102;11.620;2022-08-11T04:56:43;95661.94;;;24.94;35.66
22389;BME280;11362;48.102;11.620;2022-08-11T05:05:02;95667.91;;;24.92;35.97
22389;BME280;11362;48.102;11.620;2022-08-11T05:10:50;95674.69;;;24.91;36.28
22389;BME280;11362;48.102;11.620;2022-08-11T05:13:45;95671.91;;;24.91;36.31
22389;BME280;11362;48.102;11.620;2022-08-11T05:16:16;95673.91;;;24.91;36.15
22389;BME280;11362;48.102;11.620;2022-08-11T05:18:52;95671.91;;;24.91;37.00
22389;BME280;11362;48.102;11.620;2022-08-11T05:21:20;95681.34;;;24.97;36.96
22389;BME280;11362;48.102;11.620;2022-08-11T05:24:02;95669.03;;;24.98;35.97
22389;BME280;11362;48.102;11.620;2022-08-11T05:26:38;95674.19;;;25.00;36.14
22389;BME280;11362;48.102;11.620;2022-08-11T05:29:26;95679.38;;;24.98;36.45
22389;BME280;11362;48.102;11.620;2022-08-11T05:31:57;95670.22;;;24.97;36.26
22389;BME280;11362;48.102;11.620;2022-08-11T05:34:30;95671.03;;;24.98;36.07
22389;BME280;11362;48.102;11.620;2022-08-11T05:37:06;95668.72;;;24.93;36.41
22389;BME280;11362;48.102;11.620;2022-08-11T05:39:43;95669.50;;;24.93;36.59
22389;BME280;11362;48.102;11.620;2022-08-11T05:42:10;95671.53;;;24.89;36.76
22389;BME280;11362;48.102;11.620;2022-08-11T05:44:37;95673.94;;;24.87;36.63
22389;BME280;11362;48.102;11.620;2022-08-11T05:47:03;95669.19;;;24.84;36.70
22389;BME280;11362;48.102;11.620;2022-08-11T05:49:30;95668.44;;;24.84;36.76
22389;BME280;11362;48.102;11.620;2022-08-11T05:51:57;95679.59;;;24.80;36.84
22389;BME280;11362;48.102;11.620;2022-08-11T05:54:25;95668.47;;;24.80;36.57
22389;BME280;11362;48.102;11.620;2022-08-11T05:56:57;95669.69;;;24.79;36.92
22389;BME280;11362;48.102;11.620;2022-08-11T05:59:25;95674.41;;;24.82;36.85
22389;BME280;11362;48.102;11.620;2022-08-11T06:01:52;95674.00;;;24.84;36.77
22389;BME280;11362;48.102;11.620;2022-08-11T06:04:23;95659.28;;;24.83;36.59
22389;BME280;11362;48.102;11.620;2022-08-11T06:06:59;95665.69;;;24.80;36.63
22389;BME280;11362;48.102;11.620;2022-08-11T06:09:26;95668.47;;;24.80;36.47
22389;BME280;11362;48.102;11.620;2022-08-11T06:11:53;95668.53;;;24.77;36.37
22389;BME280;11362;48.102;11.620;2022-08-11T06:14:21;95668.94;;;24.75;36.43
22389;BME280;11362;48.102;11.620;2022-08-11T06:16:48;95668.94;;;24.75;36.03
22389;BME280;11362;48.102;11.620;2022-08-11T06:19:14;95674.84;;;24.77;36.15
22389;BME280;11362;48.102;11.620;2022-08-11T06:21:44;95668.16;;;24.75;36.62
22389;BME280;11362;48.102;11.620;2022-08-11T06:24:12;95673.28;;;24.76;36.36
22389;BME280;11362;48.102;11.620;2022-08-11T06:26:46;95674.47;;;24.75;36.85
22389;BME280;11362;48.102;11.620;2022-08-11T06:29:12;95672.06;;;24.77;36.52
22389;BME280;11362;48.102;11.620;2022-08-11T06:31:39;95673.28;;;24.76;36.10
22389;BME280;11362;48.102;11.620;2022-08-11T06:36:56;95672.06;;;24.77;36.16
22389;BME280;11362;48.102;11.620;2022-08-11T06:39:43;95680.03;;;24.75;36.66
22389;BME280;11362;48.102;11.620;2022-08-11T06:42:13;95673.31;;;24.73;36.17
22389;BME280;11362;48.102;11.620;2022-08-11T06:44:56;95674.84;;;24.77;36.43
22389;BME280;11362;48.102;11.620;2022-08-11T06:47:25;95678.06;;;24.76;36.16
22389;BME280;11362;48.102;11.620;2022-08-11T06:49:55;95683.63;;;24.76;36.13
22389;BME280;11362;48.102;11.620;2022-08-11T06:52:29;95680.81;;;24.79;36.33
22389;BME280;11362;48.102;11.620;2022-08-11T06:54:59;95680.41;;;24.77;36.42
22389;BME280;11362;48.102;11.620;2022-08-11T06:57:29;95683.13;;;24.81;36.66
22389;BME280;11362;48.102;11.620;2022-08-11T06:59:55;95675.25;;;24.79;36.46
22389;BME280;11362;48.102;11.620;2022-08-11T07:02:29;95686.72;;;24.81;36.50
22389;BME280;11362;48.102;11.620;2022-08-11T07:04:59;95688.66;;;24.84;36.43
22389;BME280;11362;48.102;11.620;2022-08-11T07:10:54;95673.53;;;24.89;36.65
22389;BME280;11362;48.102;11.620;2022-08-11T07:13:26;95678.66;;;24.90;37.28
22389;BME280;11362;48.102;11.620;2022-08-11T07:15:54;95681.44;;;24.90;36.49
22389;BME280;11362;48.102;11.620;2022-08-11T07:18:32;95677.09;;;24.89;36.57
22389;BME280;11362;48.102;11.620;2022-08-11T07:21:18;95676.31;;;24.89;37.04
22389;BME280;11362;48.102;11.620;2022-08-11T07:23:45;95677.09;;;24.89;36.52
22389;BME280;11362;48.102;11.620;2022-08-11T07:26:12;95680.72;;;24.86;36.90
22389;BME280;11362;48.102;11.620;2022-08-11T07:28:46;95674.72;;;24.88;36.81
22389;BME280;11362;48.102;11.620;2022-08-11T07:31:15;95675.53;;;24.88;36.70
22389;BME280;11362;48.102;11.620;2022-08-11T07:33:50;95668.34;;;24.91;36.42
22389;BME280;11362;48.102;11.620;2022-08-11T07:36:16;95666.78;;;24.90;36.62
22389;BME280;11362;48.102;11.620;2022-08-11T07:38:46;95673.09;;;24.90;36.68
22389;BME280;11362;48.102;11.620;2022-08-11T07:41:14;95664.44;;;24.85;37.03
22389;BME280;11362;48.102;11.620;2022-08-11T07:43:41;95662.47;;;24.85;36.87
22389;BME280;11362;48.102;11.620;2022-08-11T07:46:07;95667.97;;;24.89;36.41
22389;BME280;11362;48.102;11.620;2022-08-11T07:48:34;95664.34;;;24.92;36.52
22389;BME280;11362;48.102;11.620;2022-08-11T07:51:00;95666.34;;;24.91;36.83
22389;BME280;11362;48.102;11.620;2022-08-11T07:53:26;95665.97;;;24.89;36.88
22389;BME280;11362;48.102;11.620;2022-08-11T07:55:54;95667.53;;;24.90;36.90
22389;BME280;11362;48.102;11.620;2022-08-11T07:58:21;95661.53;;;24.95;36.54
22389;BME280;11362;48.102;11.620;2022-08-11T08:00:53;95663.47;;;24.98;36.90
22389;BME280;11362;48.102;11.620;2022-08-11T08:03:19;95663.06;;;25.00;37.50
22389;BME280;11362;48.102;11.620;2022-08-11T08:05:46;95668.25;;;24.98;37.13
22389;BME280;11362;48.102;11.620;2022-08-11T08:08:14;95658.75;;;24.95;36.91
22389;BME280;11362;48.102;11.620;2022-08-11T08:10:40;95665.09;;;24.96;36.97
22389;BME280;11362;48.102;11.620;2022-08-11T08:13:06;95659.53;;;24.96;37.09
22389;BME280;11362;48.102;11.620;2022-08-11T08:15:31;95666.69;;;24.97;37.09
22389;BME280;11362;48.102;11.620;2022-08-11T08:17:59;95663.94;;;24.93;37.02
22389;BME280;11362;48.102;11.620;2022-08-11T08:20:30;95658.75;;;24.95;37.12
22389;BME280;11362;48.102;11.620;2022-08-11T08:22:58;95658.75;;;24.95;37.08
22389;BME280;11362;48.102;11.620;2022-08-11T08:25:27;95653.91;;;24.99;37.18
22389;BME280;11362;48.102;11.620;2022-08-11T08:27:54;95666.63;;;25.00;36.89
22389;BME280;11362;48.102;11.620;2022-08-11T08:30:20;95655.88;;;25.02;37.10
22389;BME280;11362;48.102;11.620;2022-08-11T08:32:46;95657.88;;;25.02;37.10
22389;BME280;11362;48.102;11.620;2022-08-11T08:35:11;95661.44;;;25.02;37.24
22389;BME280;11362;48.102;11.620;2022-08-11T08:37:37;95659.88;;;25.01;37.46
22389;BME280;11362;48.102;11.620;2022-08-11T08:40:05;95654.69;;;25.03;37.59
22389;BME280;11362;48.102;11.620;2022-08-11T08:42:42;95657.47;;;25.03;37.68
22389;BME280;11362;48.102;11.620;2022-08-11T08:45:11;95660.22;;;25.03;37.30
22389;BME280;11362;48.102;11.620;2022-08-11T08:47:42;95656.25;;;25.04;37.64
22389;BME280;11362;48.102;11.620;2022-08-11T08:50:11;95655.44;;;25.07;37.60
22389;BME280;11362;48.102;11.620;2022-08-11T08:52:46;95655.44;;;25.07;37.48
22389;BME280;11362;48.102;11.620;2022-08-11T08:55:17;95662.16;;;25.06;37.58
22389;BME280;11362;48.102;11.620;2022-08-11T08:57:45;95670.09;;;25.08;37.35
22389;BME280;11362;48.102;11.620;2022-08-11T09:00:16;95662.56;;;25.08;37.60
22389;BME280;11362;48.102;11.620;2022-08-11T09:02:42;95654.59;;;25.10;38.55
22389;BME280;11362;48.102;11.620;2022-08-11T09:05:09;95657.72;;;25.12;38.41
22389;BME280;11362;48.102;11.620;2022-08-11T09:07:34;95653.72;;;25.13;37.96
22389;BME280;11362;48.102;11.620;2022-08-11T09:10:00;95658.88;;;25.15;37.65
22389;BME280;11362;48.102;11.620;2022-08-11T09:12:28;95662.47;;;25.15;37.66
22389;BME280;11362;48.102;11.620;2022-08-11T09:14:54;95660.03;;;25.17;38.14
22389;BME280;11362;48.102;11.620;2022-08-11T09:17:21;95648.94;;;25.17;38.58
22389;BME280;11362;48.102;11.620;2022-08-11T09:19:50;95664.41;;;25.18;38.35
22389;BME280;11362;48.102;11.620;2022-08-11T09:22:19;95652.06;;;25.19;38.23
22389;BME280;11362;48.102;11.620;2022-08-11T09:24:47;95657.63;;;25.19;38.46
22389;BME280;11362;48.102;11.620;2022-08-11T09:27:12;95649.28;;;25.19;39.18
22389;BME280;11362;48.102;11.620;2022-08-11T09:29:38;95649.69;;;25.21;38.86
22389;BME280;11362;48.102;11.620;2022-08-11T09:32:04;95651.66;;;25.21;38.19
22389;BME280;11362;48.102;11.620;2022-08-11T09:34:29;95655.25;;;25.21;39.25
22389;BME280;11362;48.102;11.620;2022-08-11T09:36:57;95655.25;;;25.21;38.47
22389;BME280;11362;48.102;11.620;2022-08-11T09:39:23;95658.41;;;25.23;37.89
22389;BME280;11362;48.102;11.620;2022-08-11T09:41:50;95656.00;;;25.22;38.53
22389;BME280;11362;48.102;11.620;2022-08-11T09:44:16;95668.72;;;25.23;38.09
22389;BME280;11362;48.102;11.620;2022-08-11T09:46:42;95672.31;;;25.23;38.48
22389;BME280;11362;48.102;11.620;2022-08-11T09:49:08;95672.66;;;25.25;38.09
22389;BME280;11362;48.102;11.620;2022-08-11T09:51:33;95663.16;;;25.23;38.26
22389;BME280;11362;48.102;11.620;2022-08-11T09:54:00;95654.41;;;25.24;37.94
22389;BME280;11362;48.102;11.620;2022-08-11T09:56:27;95656.00;;;25.25;38.12
22389;BME280;11362;48.102;11.620;2022-08-11T09:58:53;95656.00;;;25.25;38.13
22389;BME280;11362;48.102;11.620;2022-08-11T10:01:21;95657.16;;;25.28;38.12
22389;BME280;11362;48.102;11.620;2022-08-11T10:03:48;95658.72;;;25.29;37.91
22389;BME280;11362;48.102;11.620;2022-08-11T10:06:14;95651.19;;;25.29;38.20
22389;BME280;11362;48.102;11.620;2022-08-11T10:08:41;95646.78;;;25.28;38.06
22389;BME280;11362;48.102;11.620;2022-08-11T10:11:10;95647.19;;;25.30;37.82
22389;BME280;11362;48.102;11.620;2022-08-11T10:13:41;95645.63;;;25.29;38.02
22389;BME280;11362;48.102;11.620;2022-08-11T10:16:08;95638.44;;;25.28;38.53
22389;BME280;11362;48.102;11.620;2022-08-11T10:18:36;95637.69;;;25.28;38.51
22389;BME280;11362;48.102;11.620;2022-08-11T10:21:09;95639.25;;;25.29;39.42
22389;BME280;11362;48.102;11.620;2022-08-11T10:23:36;95638.44;;;25.28;39.11
22389;BME280;11362;48.102;11.620;2022-08-11T10:26:04;95635.25;;;25.30;38.50
22389;BME280;11362;48.102;11.620;2022-08-11T10:28:31;95628.94;;;25.29;39.70
22389;BME280;11362;48.102;11.620;2022-08-11T10:30:58;95630.50;;;25.30;38.33
22389;BME280;11362;48.102;11.620;2022-08-11T10:33:24;95630.50;;;25.30;38.30
22389;BME280;11362;48.102;11.620;2022-08-11T10:35:49;95623.72;;;25.31;38.56
22389;BME280;11362;48.102;11.620;2022-08-11T10:38:15;95626.88;;;25.33;40.15
22389;BME280;11362;48.102;11.620;2022-08-11T10:40:44;95626.03;;;25.36;41.72
22389;BME280;11362;48.102;11.620;2022-08-11T10:43:11;95631.06;;;25.45;41.01
22389;BME280;11362;48.102;11.620;2022-08-11T10:45:43;95625.44;;;25.48;40.17
22389;BME280;11362;48.102;11.620;2022-08-11T10:48:09;95619.47;;;25.50;39.78
22389;BME280;11362;48.102;11.620;2022-08-11T10:50:36;95607.94;;;25.51;40.22
22389;BME280;11362;48.102;11.620;2022-08-11T10:53:02;95615.84;;;25.53;38.96
22389;BME280;11362;48.102;11.620;2022-08-11T10:55:28;95612.28;;;25.52;38.66
22389;BME280;11362;48.102;11.620;2022-08-11T10:57:54;95608.69;;;25.52;38.29
22389;BME280;11362;48.102;11.620;2022-08-11T11:00:19;95606.31;;;25.54;38.36
22389;BME280;11362;48.102;11.620;2022-08-11T11:02:45;95611.81;;;25.57;37.14
22389;BME280;11362;48.102;11.620;2022-08-11T11:05:21;95603.09;;;25.55;37.16
22389;BME280;11362;48.102;11.620;2022-08-11T11:08:01;95600.81;;;25.50;36.57
22389;BME280;11362;48.102;11.620;2022-08-11T11:10:31;95593.56;;;25.53;37.59
22389;BME280;11362;48.102;11.620;2022-08-11T11:12:58;95603.09;;;25.55;36.71
22389;BME280;11362;48.102;11.620;2022-08-11T11:15:26;95601.50;;;25.54;36.99
22389;BME280;11362;48.102;11.620;2022-08-11T11:17:57;95597.16;;;25.53;37.43
22389;BME280;11362;48.102;11.620;2022-08-11T11:23:18;95594.72;;;25.55;37.73
22389;BME280;11362;48.102;11.620;2022-08-11T11:28:43;95602.31;;;25.55;36.66
22389;BME280;11362;48.102;11.620;2022-08-11T11:31:48;95602.66;;;25.57;36.38
22389;BME280;11362;48.102;11.620;2022-08-11T11:34:42;95596.31;;;25.56;36.41
22389;BME280;11362;48.102;11.620;2022-08-11T11:37:14;95598.66;;;25.58;36.54
22389;BME280;11362;48.102;11.620;2022-08-11T11:39:40;95582.41;;;25.56;36.17
22389;BME280;11362;48.102;11.620;2022-08-11T11:42:08;95575.66;;;25.57;35.78
22389;BME280;11362;48.102;11.620;2022-08-11T11:44:36;95580.00;;;25.58;35.83
22389;BME280;11362;48.102;11.620;2022-08-11T11:47:03;95578.84;;;25.56;36.19
22389;BME280;11362;48.102;11.620;2022-08-11T11:49:30;95584.00;;;25.57;36.13
22389;BME280;11362;48.102;11.620;2022-08-11T11:51:56;95582.34;;;25.60;35.68
22389;BME280;11362;48.102;11.620;2022-08-11T11:54:25;95576.00;;;25.59;35.37
22389;BME280;11362;48.102;11.620;2022-08-11T11:56:52;95590.28;;;25.61;35.24
22389;BME280;11362;48.102;11.620;2022-08-11T11:59:20;95582.72;;;25.62;35.53
22389;BME280;11362;48.102;11.620;2022-08-11T12:01:46;95582.34;;;25.60;35.74
22389;BME280;11362;48.102;11.620;2022-08-11T12:04:14;95576.00;;;25.59;35.36
22389;BME280;11362;48.102;11.620;2022-08-11T12:06:41;95581.56;;;25.59;35.37
22389;BME280;11362;48.102;11.620;2022-08-11T12:09:07;95577.69;;;25.53;35.05
22389;BME280;11362;48.102;11.620;2022-08-11T12:11:35;95574.56;;;25.51;36.05
22389;BME280;11362;48.102;11.620;2022-08-11T12:14:03;95578.53;;;25.50;36.24
22389;BME280;11362;48.102;11.620;2022-08-11T12:16:30;95568.59;;;25.49;36.40
22389;BME280;11362;48.102;11.620;2022-08-11T12:18:58;95567.84;;;25.49;36.16
22389;BME280;11362;48.102;11.620;2022-08-11T12:21:25;95561.47;;;25.48;37.05
22389;BME280;11362;48.102;11.620;2022-08-11T12:23:51;95563.03;;;25.49;36.46
22389;BME280;11362;48.102;11.620;2022-08-11T12:26:19;95565.81;;;25.49;36.32
22389;BME280;11362;48.102;11.620;2022-08-11T12:28:45;95561.84;;;25.50;36.66
22389;BME280;11362;48.102;11.620;2022-08-11T12:31:13;95560.25;;;25.49;36.46
22389;BME280;11362;48.102;11.620;2022-08-11T12:33:39;95560.25;;;25.49;36.40
22389;BME280;11362;48.102;11.620;2022-08-11T12:36:05;95558.28;;;25.50;37.20
22389;BME280;11362;48.102;11.620;2022-08-11T12:38:32;95557.88;;;25.51;36.08
22389;BME280;11362;48.102;11.620;2022-08-11T12:40:58;95555.09;;;25.51;36.66
22389;BME280;11362;48.102;11.620;2022-08-11T12:43:27;95551.50;;;25.51;36.17
22389;BME280;11362;48.102;11.620;2022-08-11T12:45:57;95552.31;;;25.51;36.09
22389;BME280;11362;48.102;11.620;2022-08-11T12:48:30;95546.72;;;25.51;36.37
22389;BME280;11362;48.102;11.620;2022-08-11T12:51:01;95534.03;;;25.50;36.11
22389;BME280;11362;48.102;11.620;2022-08-11T12:53:29;95542.75;;;25.52;36.13
22389;BME280;11362;48.102;11.620;2022-08-11T12:56:02;95539.84;;;25.59;35.95
22389;BME280;11362;48.102;11.620;2022-08-11T12:58:28;95532.59;;;25.65;35.71
22389;BME280;11362;48.102;11.620;2022-08-11T13:00:55;95540.00;;;25.72;35.04
22389;BME280;11362;48.102;11.620;2022-08-11T13:03:21;95538.44;;;25.71;35.21
22389;BME280;11362;48.102;11.620;2022-08-11T13:05:51;95547.56;;;25.71;34.43
22389;BME280;11362;48.102;11.620;2022-08-11T13:08:19;95534.03;;;25.73;34.26
22389;BME280;11362;48.102;11.620;2022-08-11T13:10:49;95529.69;;;25.72;34.10
22389;BME280;11362;48.102;11.620;2022-08-11T13:13:16;95532.00;;;25.74;34.23
22389;BME280;11362;48.102;11.620;2022-08-11T13:15:44;95528.81;;;25.75;34.48
22389;BME280;11362;48.102;11.620;2022-08-11T13:18:18;95526.03;;;25.75;34.43
22389;BME280;11362;48.102;11.620;2022-08-11T13:20:45;95526.03;;;25.75;34.01
22389;BME280;11362;48.102;11.620;2022-08-11T13:23:11;95533.97;;;25.77;34.19
22389;BME280;11362;48.102;11.620;2022-08-11T13:25:37;95526.84;;;25.76;33.57
22389;BME280;11362;48.102;11.620;2022-08-11T13:28:03;95538.78;;;25.73;34.00
22389;BME280;11362;48.102;11.620;2022-08-11T13:30:30;95530.03;;;25.74;33.69
22389;BME280;11362;48.102;11.620;2022-08-11T13:32:56;95530.38;;;25.76;34.36
22389;BME280;11362;48.102;11.620;2022-08-11T13:35:22;95525.16;;;25.78;33.96
22389;BME280;11362;48.102;11.620;2022-08-11T13:37:48;95528.75;;;25.79;33.72
22389;BME280;11362;48.102;11.620;2022-08-11T13:40:16;95519.13;;;25.83;33.49
22389;BME280;11362;48.102;11.620;2022-08-11T13:42:44;95526.94;;;25.92;33.69
22389;BME280;11362;48.102;11.620;2022-08-11T13:45:12;95523.03;;;25.89;33.73
22389;BME280;11362;48.102;11.620;2022-08-11T13:47:39;95516.66;;;25.89;33.32
22389;BME280;11362;48.102;11.620;2022-08-11T13:50:06;95513.09;;;25.88;33.13
22389;BME280;11362;48.102;11.620;2022-08-11T13:52:34;95517.44;;;25.89;32.94
22389;BME280;11362;48.102;11.620;2022-08-11T13:55:00;95513.91;;;25.85;33.43
22389;BME280;11362;48.102;11.620;2022-08-11T13:57:29;95515.56;;;25.83;33.42
22389;BME280;11362;48.102;11.620;2022-08-11T13:59:55;95515.56;;;25.83;33.18
22389;BME280;11362;48.102;11.620;2022-08-11T14:02:26;95511.13;;;25.85;33.32
22389;BME280;11362;48.102;11.620;2022-08-11T14:04:54;95515.50;;;25.86;33.48
22389;BME280;11362;48.102;11.620;2022-08-11T14:07:22;95512.72;;;25.86;33.41
22389;BME280;11362;48.102;11.620;2022-08-11T14:09:54;95507.88;;;25.90;32.84
22389;BME280;11362;48.102;11.620;2022-08-11T14:12:25;95503.88;;;25.91;32.74
22389;BME280;11362;48.102;11.620;2022-08-11T14:14:57;95502.31;;;25.90;33.22
22389;BME280;11362;48.102;11.620;2022-08-11T14:17:23;95505.53;;;25.89;32.47
22389;BME280;11362;48.102;11.620;2022-08-11T14:19:50;95510.72;;;25.87;32.33
22389;BME280;11362;48.102;11.620;2022-08-11T14:22:17;95500.75;;;25.89;32.66
22389;BME280;11362;48.102;11.620;2022-08-11T14:24:44;95506.59;;;25.95;32.43
22389;BME280;11362;48.102;11.620;2022-08-11T14:27:11;95501.56;;;25.90;32.39
22389;BME280;11362;48.102;11.620;2022-08-11T14:29:38;95501.09;;;25.91;32.65
22389;BME280;11362;48.102;11.620;2022-08-11T14:32:07;95499.88;;;25.92;32.47
22389;BME280;11362;48.102;11.620;2022-08-11T14:34:33;95508.69;;;25.91;32.83
22389;BME280;11362;48.102;11.620;2022-08-11T14:37:01;95504.34;;;25.90;33.46
22389;BME280;11362;48.102;11.620;2022-08-11T14:39:31;95497.97;;;25.89;33.27
22389;BME280;11362;48.102;11.620;2022-08-11T14:41:59;95502.66;;;25.92;32.92
22389;BME280;11362;48.102;11.620;2022-08-11T14:44:25;95498.25;;;25.95;33.08
22389;BME280;11362;48.102;11.620;2022-08-11T14:46:51;95499.34;;;26.01;32.97
22389;BME280;11362;48.102;11.620;2022-08-11T14:49:17;95500.47;;;26.03;33.14
22389;BME280;11362;48.102;11.620;2022-08-11T14:51:45;95491.63;;;26.08;32.92
22389;BME280;11362;48.102;11.620;2022-08-11T14:54:11;95496.34;;;26.11;32.63
22389;BME280;11362;48.102;11.620;2022-08-11T14:56:37;95494.69;;;26.14;32.91
22389;BME280;11362;48.102;11.620;2022-08-11T14:59:03;95497.13;;;26.12;33.14
22389;BME280;11362;48.102;11.620;2022-08-11T15:01:29;95501.56;;;26.09;33.63
22389;BME280;11362;48.102;11.620;2022-08-11T15:03:56;95496.06;;;26.06;33.90
22389;BME280;11362;48.102;11.620;2022-08-11T15:06:24;95486.97;;;26.02;34.26
22389;BME280;11362;48.102;11.620;2022-08-11T15:08:50;95495.75;;;26.00;33.93
22389;BME280;11362;48.102;11.620;2022-08-11T15:11:18;95489.06;;;25.98;33.73